Time;durP1;ratioP1;P1;durP2;ratioP2;P2;SDS_P1;SDS_P2;PMS_P1;PMS_P2;Temp;Humidity;BMP_temperature;BMP_pressure;BME280_temperature;BME280_humidity;BME280_pressure;Samples;Min_cycle;Max_cycle;Signal;HPM_P1;HPM_P2
2023/12/11 00:02:26;;;;;;;47.57;20.73;;;4.10;99.90;;;;;;5070816;28;20568;-67
2023/12/11 00:04:53;;;;;;;55.93;22.97;;;4.10;99.90;;;;;;5069336;28;20229;-67
2023/12/11 00:07:21;;;;;;;58.07;24.07;;;4.10;99.90;;;;;;5052410;28;20201;-68
2023/12/11 00:09:48;;;;;;;51.77;23.13;;;4.10;99.90;;;;;;5052492;28;20262;-68
2023/12/11 00:12:17;;;;;;;58.10;23.20;;;4.10;99.90;;;;;;5070072;28;20204;-68
2023/12/11 00:14:44;;;;;;;49.30;21.30;;;4.10;99.90;;;;;;5070054;28;20272;-67
2023/12/11 00:17:11;;;;;;;51.53;22.13;;;4.10;99.90;;;;;;5068742;28;20200;-68
2023/12/11 00:19:38;;;;;;;44.37;20.73;;;4.10;99.90;;;;;;5061728;28;20198;-68
2023/12/11 00:22:05;;;;;;;52.27;22.80;;;4.20;99.90;;;;;;5063370;28;20201;-67
2023/12/11 00:24:34;;;;;;;51.60;21.60;;;4.20;99.90;;;;;;5070527;28;20212;-68
2023/12/11 00:27:01;;;;;;;50.40;19.97;;;4.10;99.90;;;;;;5066526;28;20200;-68
2023/12/11 00:29:28;;;;;;;50.67;21.40;;;4.20;99.90;;;;;;5052096;28;20283;-67
2023/12/11 00:31:56;;;;;;;42.43;18.93;;;4.20;99.90;;;;;;5070011;28;20217;-67
2023/12/11 00:34:23;;;;;;;43.83;20.50;;;4.20;99.90;;;;;;5069566;28;20208;-70
2023/12/11 00:36:50;;;;;;;39.70;17.20;;;4.20;99.90;;;;;;5069927;28;20205;-70
2023/12/11 00:39:18;;;;;;;34.40;15.80;;;4.30;99.90;;;;;;5051908;28;20240;-66
2023/12/11 00:41:47;;;;;;;43.57;18.10;;;4.30;99.90;;;;;;5050825;28;20648;-66
2023/12/11 00:44:14;;;;;;;39.40;17.50;;;4.30;99.90;;;;;;5069310;28;20203;-66
2023/12/11 00:46:41;;;;;;;41.73;18.83;;;4.30;99.90;;;;;;5051524;28;20205;-66
2023/12/11 00:49:08;;;;;;;44.57;19.83;;;4.30;99.90;;;;;;5069265;28;20186;-67
2023/12/11 00:51:35;;;;;;;46.87;19.60;;;4.40;99.90;;;;;;5063137;28;20275;-66
2023/12/11 00:54:03;;;;;;;38.70;17.63;;;4.40;99.90;;;;;;5052916;28;20595;-66
2023/12/11 00:56:30;;;;;;;40.70;18.00;;;4.40;99.90;;;;;;5046687;28;20216;-66
2023/12/11 00:58:58;;;;;;;36.40;16.77;;;4.40;99.90;;;;;;5073577;28;20201;-66
2023/12/11 01:01:25;;;;;;;42.27;18.43;;;4.40;99.90;;;;;;5072835;28;20209;-66
2023/12/11 01:03:52;;;;;;;47.47;19.23;;;4.40;99.90;;;;;;5072924;28;20229;-66
2023/12/11 01:06:20;;;;;;;34.27;15.77;;;4.40;99.90;;;;;;5070760;28;20225;-66
2023/12/11 01:08:47;;;;;;;36.43;15.83;;;4.40;99.90;;;;;;5073442;28;20193;-66
2023/12/11 01:11:14;;;;;;;34.90;15.70;;;4.40;99.90;;;;;;5072370;28;20190;-66
2023/12/11 01:13:41;;;;;;;39.43;17.93;;;4.40;99.90;;;;;;5073231;28;20200;-66
2023/12/11 01:16:10;;;;;;;39.60;17.53;;;4.40;99.90;;;;;;5054357;28;20210;-66
2023/12/11 01:18:37;;;;;;;40.57;17.70;;;4.40;99.90;;;;;;5062472;28;20199;-67
2023/12/11 01:21:04;;;;;;;49.33;19.13;;;4.40;99.90;;;;;;5072247;28;20688;-66
2023/12/11 01:23:31;;;;;;;50.23;20.97;;;4.40;99.90;;;;;;5072338;28;20556;-66
2023/12/11 01:25:58;;;;;;;49.30;21.83;;;4.40;99.90;;;;;;5042584;28;20188;-66
2023/12/11 01:28:26;;;;;;;48.13;20.73;;;4.40;99.90;;;;;;5065726;28;20564;-66
2023/12/11 01:30:53;;;;;;;48.20;21.07;;;4.40;99.90;;;;;;5071982;28;20185;-66
2023/12/11 01:33:21;;;;;;;51.03;21.63;;;4.30;99.90;;;;;;5064644;28;20300;-66
2023/12/11 01:35:48;;;;;;;39.47;17.50;;;4.30;99.90;;;;;;5053483;28;20185;-66
2023/12/11 01:38:15;;;;;;;37.40;16.80;;;4.30;99.90;;;;;;5072184;28;20640;-66
2023/12/11 01:40:42;;;;;;;47.53;20.03;;;4.30;99.90;;;;;;5073746;28;20219;-65
2023/12/11 01:43:14;;;;;;;43.87;18.80;;;4.20;99.90;;;;;;5072167;28;20197;-66
2023/12/11 01:45:41;;;;;;;41.53;18.57;;;4.20;99.90;;;;;;5075920;28;20660;-65
2023/12/11 01:48:10;;;;;;;40.13;17.27;;;4.20;99.90;;;;;;5054137;28;20211;-65
2023/12/11 01:50:41;;;;;;;58.30;19.20;;;4.20;99.90;;;;;;5071822;28;20201;-65
2023/12/11 01:53:09;;;;;;;46.70;18.27;;;4.20;99.90;;;;;;5071975;28;20620;-66
2023/12/11 01:55:37;;;;;;;35.70;15.63;;;4.20;99.90;;;;;;5072132;28;20204;-66
2023/12/11 01:58:05;;;;;;;34.87;15.67;;;4.20;99.90;;;;;;5070594;28;20189;-66
2023/12/11 02:03:15;;;;;;;43.03;17.83;;;4.20;99.90;;;;;;5306825;22;20222;-66
2023/12/11 02:05:44;;;;;;;36.60;16.20;;;4.20;99.90;;;;;;5059369;28;20276;-66
2023/12/11 02:08:11;;;;;;;41.03;17.07;;;4.30;99.90;;;;;;5064320;28;20236;-66
2023/12/11 02:10:39;;;;;;;36.60;16.63;;;4.30;99.90;;;;;;5044288;28;20200;-66
2023/12/11 02:13:06;;;;;;;38.83;17.07;;;4.30;99.90;;;;;;5071232;28;20200;-66
2023/12/11 02:15:40;;;;;;;35.70;15.63;;;4.40;99.90;;;;;;5071059;28;20193;-65
2023/12/11 02:18:09;;;;;;;35.40;16.33;;;4.40;99.90;;;;;;5062396;28;20251;-66
2023/12/11 02:20:36;;;;;;;36.17;16.47;;;4.40;99.90;;;;;;5068095;28;20301;-66
2023/12/11 02:23:09;;;;;;;34.70;15.93;;;4.40;99.90;;;;;;5053068;28;20199;-69
2023/12/11 02:25:37;;;;;;;31.60;14.73;;;4.50;99.90;;;;;;5070842;28;20221;-68
2023/12/11 02:28:06;;;;;;;35.03;15.17;;;4.50;99.90;;;;;;5063959;28;20206;-70
2023/12/11 02:30:37;;;;;;;30.87;15.17;;;4.50;99.90;;;;;;5051544;28;20680;-68
2023/12/11 02:33:04;;;;;;;33.07;15.03;;;4.50;99.90;;;;;;5071302;28;20189;-70
2023/12/11 02:35:32;;;;;;;35.60;16.37;;;4.50;99.90;;;;;;5070374;28;20717;-69
2023/12/11 02:37:59;;;;;;;31.33;15.13;;;4.50;99.90;;;;;;5070587;28;20189;-69
2023/12/11 02:40:26;;;;;;;34.63;16.70;;;4.50;99.90;;;;;;5070657;28;20210;-69
2023/12/11 02:42:53;;;;;;;31.80;14.67;;;4.50;99.90;;;;;;5068861;28;20211;-69
2023/12/11 02:45:21;;;;;;;29.00;13.77;;;4.60;99.90;;;;;;5052972;28;20624;-69
2023/12/11 02:47:48;;;;;;;25.80;12.07;;;4.60;99.90;;;;;;5070731;28;20185;-69
2023/12/11 02:50:16;;;;;;;30.50;13.00;;;4.60;99.90;;;;;;5071058;28;20193;-69
2023/12/11 02:52:43;;;;;;;21.07;10.23;;;4.60;99.90;;;;;;5070355;28;20246;-70
2023/12/11 02:55:10;;;;;;;21.53;11.03;;;4.60;99.90;;;;;;5070836;28;20551;-70
2023/12/11 02:57:37;;;;;;;28.93;13.90;;;4.60;99.90;;;;;;5052131;28;20282;-69
2023/12/11 03:00:05;;;;;;;31.27;14.73;;;4.70;99.90;;;;;;5053073;28;20209;-69
2023/12/11 03:02:33;;;;;;;38.60;17.40;;;4.70;99.90;;;;;;5051557;28;20237;-69
2023/12/11 03:05:00;;;;;;;36.87;16.33;;;4.70;99.90;;;;;;5052686;28;20204;-69
2023/12/11 03:07:27;;;;;;;36.83;17.83;;;4.70;99.90;;;;;;5067326;28;20250;-69
2023/12/11 03:09:57;;;;;;;35.83;17.70;;;4.70;99.90;;;;;;5070073;28;20200;-70
2023/12/11 03:12:24;;;;;;;41.27;17.93;;;4.70;99.90;;;;;;5050711;28;20198;-69
2023/12/11 03:14:51;;;;;;;40.50;18.37;;;4.70;99.90;;;;;;5070479;28;20194;-69
2023/12/11 03:17:18;;;;;;;34.50;16.43;;;4.70;99.90;;;;;;5062579;28;20624;-69
2023/12/11 03:19:46;;;;;;;36.90;17.03;;;4.60;99.90;;;;;;5071122;28;20215;-69
2023/12/11 03:22:14;;;;;;;37.37;18.53;;;4.60;99.90;;;;;;5069322;28;20216;-69
2023/12/11 03:24:41;;;;;;;38.80;16.20;;;4.60;99.90;;;;;;5070788;28;20221;-69
2023/12/11 03:27:08;;;;;;;37.77;17.03;;;4.60;99.90;;;;;;5069871;28;20197;-69
2023/12/11 03:29:35;;;;;;;35.57;15.97;;;4.60;99.90;;;;;;5070303;28;20273;-70
2023/12/11 03:32:02;;;;;;;35.63;16.03;;;4.60;99.90;;;;;;5069771;28;20228;-71
2023/12/11 03:34:29;;;;;;;35.03;16.27;;;4.60;99.90;;;;;;5069778;28;20224;-70
2023/12/11 03:36:58;;;;;;;32.37;15.70;;;4.60;99.90;;;;;;5069566;28;20619;-72
2023/12/11 03:39:25;;;;;;;31.57;14.90;;;4.60;99.90;;;;;;5051181;28;20190;-70
2023/12/11 03:41:52;;;;;;;29.73;14.57;;;4.60;99.90;;;;;;5069872;28;20213;-69
2023/12/11 03:44:19;;;;;;;31.50;15.00;;;4.60;99.90;;;;;;5051616;28;20228;-69
2023/12/11 03:46:46;;;;;;;26.93;13.53;;;4.70;99.90;;;;;;5070080;28;20221;-69
2023/12/11 03:49:16;;;;;;;29.37;14.70;;;4.70;99.90;;;;;;5070551;28;20666;-69
2023/12/11 03:51:43;;;;;;;29.00;14.33;;;4.70;99.90;;;;;;5069994;28;20189;-69
2023/12/11 03:54:12;;;;;;;29.50;13.83;;;4.70;99.90;;;;;;5069816;28;20725;-69
2023/12/11 03:56:40;;;;;;;35.67;14.97;;;4.70;99.90;;;;;;5069670;28;20197;-69
2023/12/11 03:59:07;;;;;;;31.13;14.90;;;4.80;99.90;;;;;;5070672;28;20537;-69
2023/12/11 04:01:34;;;;;;;30.40;15.33;;;4.80;99.90;;;;;;5069838;28;20218;-69
2023/12/11 04:04:03;;;;;;;29.83;14.87;;;4.80;99.90;;;;;;5051396;28;20629;-69
2023/12/11 04:06:30;;;;;;;31.10;14.47;;;4.70;99.90;;;;;;5065931;28;20232;-69
2023/12/11 04:09:00;;;;;;;24.60;12.73;;;4.70;99.90;;;;;;5068358;28;20268;-69
2023/12/11 04:11:28;;;;;;;26.37;13.17;;;4.70;99.90;;;;;;5051912;28;20205;-69
2023/12/11 04:13:55;;;;;;;24.07;12.97;;;4.70;99.90;;;;;;5070558;28;20193;-69
2023/12/11 04:16:24;;;;;;;22.27;11.13;;;4.70;99.90;;;;;;5069531;28;20225;-69
2023/12/11 04:18:51;;;;;;;31.87;14.70;;;4.80;99.90;;;;;;5069919;28;20269;-68
2023/12/11 04:21:18;;;;;;;22.67;12.00;;;4.80;99.90;;;;;;5069667;28;20205;-68
2023/12/11 04:23:45;;;;;;;22.50;11.97;;;4.70;99.90;;;;;;5051433;28;20209;-70
2023/12/11 04:26:14;;;;;;;26.60;13.80;;;4.80;99.90;;;;;;5069935;28;20230;-69
2023/12/11 04:28:42;;;;;;;31.57;14.50;;;4.80;99.90;;;;;;5070500;28;20292;-69
2023/12/11 04:31:09;;;;;;;27.03;14.50;;;4.80;99.90;;;;;;5073499;28;20186;-69
2023/12/11 04:33:37;;;;;;;23.43;12.77;;;4.80;99.90;;;;;;5073241;28;20205;-69
2023/12/11 04:36:08;;;;;;;27.63;13.67;;;4.80;99.90;;;;;;5072509;28;20190;-69
2023/12/11 04:38:35;;;;;;;24.83;12.63;;;4.90;99.90;;;;;;5073127;28;20194;-69
2023/12/11 04:41:02;;;;;;;25.77;13.50;;;4.90;99.90;;;;;;5073613;28;20270;-70
2023/12/11 04:43:29;;;;;;;30.87;14.53;;;4.90;99.90;;;;;;5074107;28;20189;-70
2023/12/11 04:45:58;;;;;;;32.70;15.37;;;4.90;99.90;;;;;;5051678;28;20724;-69
2023/12/11 04:48:25;;;;;;;34.23;15.70;;;4.90;99.90;;;;;;5068202;28;20649;-68
2023/12/11 04:50:52;;;;;;;29.73;14.40;;;4.90;99.90;;;;;;5073474;28;20609;-69
2023/12/11 04:53:19;;;;;;;31.70;14.27;;;4.90;99.90;;;;;;5073481;28;20190;-69
2023/12/11 04:55:46;;;;;;;33.13;15.77;;;4.80;99.90;;;;;;5044235;28;20194;-70
2023/12/11 04:58:13;;;;;;;37.23;17.23;;;4.90;99.90;;;;;;5073406;28;20557;-69
2023/12/11 05:00:41;;;;;;;32.87;16.57;;;4.80;99.90;;;;;;5071790;28;20646;-69
2023/12/11 05:03:10;;;;;;;30.03;15.27;;;4.80;99.90;;;;;;5062039;28;20230;-69
2023/12/11 05:05:37;;;;;;;33.20;15.43;;;4.80;99.90;;;;;;5065806;28;20197;-69
2023/12/11 05:08:04;;;;;;;31.10;15.70;;;4.80;99.90;;;;;;5068146;28;20281;-69
2023/12/11 05:10:32;;;;;;;31.43;15.47;;;4.80;99.90;;;;;;5054888;28;20637;-69
2023/12/11 05:12:59;;;;;;;35.87;16.97;;;4.70;99.90;;;;;;5073019;28;20686;-69
2023/12/11 05:15:26;;;;;;;30.80;15.07;;;4.70;99.90;;;;;;5072244;28;20705;-69
2023/12/11 05:17:53;;;;;;;34.37;15.80;;;4.80;99.90;;;;;;5068798;28;20194;-69
2023/12/11 05:20:22;;;;;;;26.03;13.63;;;4.80;99.90;;;;;;5054580;28;20213;-69
2023/12/11 05:22:49;;;;;;;24.50;12.40;;;4.80;99.90;;;;;;5072389;28;20202;-69
2023/12/11 05:25:16;;;;;;;22.40;11.10;;;4.80;99.90;;;;;;5072559;28;20189;-69
2023/12/11 05:27:43;;;;;;;16.63;9.63;;;4.80;99.90;;;;;;5072301;28;20738;-69
2023/12/11 05:30:11;;;;;;;21.10;11.00;;;4.80;99.90;;;;;;5073214;28;20263;-69
2023/12/11 05:32:38;;;;;;;23.20;11.80;;;4.80;99.90;;;;;;5070895;28;20285;-69
2023/12/11 05:35:06;;;;;;;22.23;11.93;;;4.80;99.90;;;;;;5072029;28;20264;-68
2023/12/11 05:37:35;;;;;;;24.20;12.40;;;4.90;99.90;;;;;;5071546;28;20200;-69
2023/12/11 05:40:03;;;;;;;28.73;14.03;;;4.90;99.90;;;;;;5054320;28;20229;-69
2023/12/11 05:42:30;;;;;;;29.43;14.57;;;4.90;99.90;;;;;;5071850;28;20304;-68
2023/12/11 05:44:57;;;;;;;28.03;14.23;;;5.00;99.90;;;;;;5072425;28;20197;-68
2023/12/11 05:47:24;;;;;;;28.03;14.47;;;5.00;99.90;;;;;;5071708;28;20194;-69
2023/12/11 05:49:51;;;;;;;27.60;14.73;;;5.00;99.90;;;;;;5072141;28;20660;-69
2023/12/11 05:52:18;;;;;;;27.40;14.43;;;5.00;99.90;;;;;;5070999;28;20310;-68
2023/12/11 05:54:46;;;;;;;32.17;15.20;;;5.00;99.90;;;;;;5054000;28;20212;-68
2023/12/11 05:57:13;;;;;;;31.03;15.67;;;5.00;99.90;;;;;;5067279;28;20201;-69
2023/12/11 05:59:40;;;;;;;25.47;13.67;;;5.00;99.90;;;;;;5070618;28;20829;-69
2023/12/11 06:02:07;;;;;;;31.83;14.97;;;5.00;99.90;;;;;;5053146;28;20252;-69
2023/12/11 06:04:36;;;;;;;28.70;14.77;;;5.00;99.90;;;;;;5070961;28;20198;-69
2023/12/11 06:07:04;;;;;;;25.07;13.40;;;5.00;99.90;;;;;;5069343;28;20216;-68
2023/12/11 06:09:32;;;;;;;24.83;12.57;;;5.00;99.90;;;;;;5071780;28;20256;-69
2023/12/11 06:12:00;;;;;;;22.50;11.37;;;5.00;99.90;;;;;;5071305;28;20190;-68
2023/12/11 06:14:27;;;;;;;24.43;12.67;;;5.10;99.90;;;;;;5053895;28;20221;-69
2023/12/11 06:16:54;;;;;;;24.77;11.90;;;5.10;99.90;;;;;;5069336;28;20580;-69
2023/12/11 06:19:21;;;;;;;22.67;11.97;;;5.10;99.90;;;;;;5071531;28;20224;-69
2023/12/11 06:21:49;;;;;;;20.47;11.50;;;5.10;99.90;;;;;;5053052;28;20350;-69
2023/12/11 06:24:15;;;;;;;26.47;13.07;;;5.10;99.90;;;;;;5071165;28;20637;-69
2023/12/11 06:26:42;;;;;;;29.20;14.70;;;5.20;99.90;;;;;;5053134;28;20657;-68
2023/12/11 06:29:11;;;;;;;28.90;13.10;;;5.20;99.90;;;;;;5069319;28;20202;-69
2023/12/11 06:31:38;;;;;;;21.83;11.83;;;5.20;99.90;;;;;;5063261;28;20198;-68
2023/12/11 06:34:05;;;;;;;22.27;12.23;;;5.30;99.90;;;;;;5052686;28;20202;-69
2023/12/11 06:36:32;;;;;;;23.80;12.43;;;5.30;99.90;;;;;;5071114;28;20752;-69
2023/12/11 06:39:01;;;;;;;20.40;11.87;;;5.30;99.90;;;;;;5070993;28;20228;-69
2023/12/11 06:41:28;;;;;;;24.20;12.43;;;5.30;99.90;;;;;;5069794;28;20693;-69
2023/12/11 06:43:57;;;;;;;19.47;11.13;;;5.30;99.90;;;;;;5071161;28;20632;-69
2023/12/11 06:46:28;;;;;;;24.40;12.67;;;5.30;99.90;;;;;;5070985;28;20209;-68
2023/12/11 06:48:56;;;;;;;23.57;12.77;;;5.30;99.90;;;;;;5070891;28;20230;-69
2023/12/11 06:51:24;;;;;;;24.03;12.70;;;5.30;99.90;;;;;;5052186;28;20758;-69
2023/12/11 06:53:58;;;;;;;19.70;11.97;;;5.30;99.90;;;;;;5071037;28;20243;-68
2023/12/11 06:56:30;;;;;;;15.87;9.87;;;5.30;99.90;;;;;;5071419;28;20228;-68
2023/12/11 06:58:57;;;;;;;15.83;8.83;;;5.30;99.90;;;;;;5047656;28;20214;-68
2023/12/11 07:01:28;;;;;;;15.93;9.70;;;5.30;99.90;;;;;;5070566;28;20331;-69
2023/12/11 07:03:55;;;;;;;17.07;10.00;;;5.30;99.90;;;;;;5043804;28;20329;-68
2023/12/11 07:06:23;;;;;;;15.57;8.60;;;5.30;99.90;;;;;;5065334;28;20202;-69
2023/12/11 07:08:51;;;;;;;20.37;10.13;;;5.30;99.90;;;;;;5070256;28;20198;-69
2023/12/11 07:11:21;;;;;;;22.07;11.17;;;5.30;99.90;;;;;;5052265;28;20217;-69
2023/12/11 07:13:48;;;;;;;22.10;11.37;;;5.30;99.90;;;;;;5071059;28;20341;-68
2023/12/11 07:16:15;;;;;;;24.63;10.80;;;5.30;99.90;;;;;;5069871;28;21261;-70
2023/12/11 07:18:44;;;;;;;22.60;9.97;;;5.30;99.90;;;;;;5070462;28;20680;-68
2023/12/11 07:21:12;;;;;;;20.70;10.57;;;5.40;99.90;;;;;;5069777;28;20202;-69
2023/12/11 07:23:39;;;;;;;19.63;11.47;;;5.40;99.90;;;;;;5069982;28;20210;-69
2023/12/11 07:26:08;;;;;;;21.37;11.93;;;5.40;99.90;;;;;;5070017;28;20186;-69
2023/12/11 07:28:36;;;;;;;28.87;12.37;;;5.30;99.90;;;;;;5070712;28;20323;-69
2023/12/11 07:31:05;;;;;;;24.43;12.43;;;5.40;99.90;;;;;;5070041;28;20337;-69
2023/12/11 07:33:32;;;;;;;25.80;12.33;;;5.30;99.90;;;;;;5070653;28;20206;-68
2023/12/11 07:36:00;;;;;;;23.13;11.77;;;5.40;99.90;;;;;;5069015;28;20206;-68
2023/12/11 07:38:28;;;;;;;24.23;11.73;;;5.40;99.90;;;;;;5051865;28;20231;-69
2023/12/11 07:40:56;;;;;;;15.97;10.03;;;5.40;99.90;;;;;;5070152;28;20230;-68
2023/12/11 07:43:23;;;;;;;18.03;8.77;;;5.40;99.90;;;;;;5070312;28;20260;-68
2023/12/11 07:45:51;;;;;;;17.00;8.77;;;5.30;99.90;;;;;;5069905;28;20201;-69
2023/12/11 07:48:18;;;;;;;13.17;7.67;;;5.40;99.90;;;;;;5070535;28;20667;-69
2023/12/11 07:50:45;;;;;;;13.40;7.93;;;5.40;99.90;;;;;;5069283;28;20206;-69
2023/12/11 07:53:14;;;;;;;13.13;8.67;;;5.40;99.90;;;;;;5069768;28;20191;-69
2023/12/11 07:55:41;;;;;;;14.33;7.90;;;5.50;99.90;;;;;;5069564;28;20208;-68
2023/12/11 07:58:08;;;;;;;12.97;7.37;;;5.50;99.90;;;;;;5070153;28;20203;-69
2023/12/11 08:00:35;;;;;;;15.63;8.90;;;5.50;99.90;;;;;;5069917;28;20639;-68
2023/12/11 08:03:05;;;;;;;20.83;9.50;;;5.50;99.90;;;;;;5070608;28;20238;-68
2023/12/11 08:05:32;;;;;;;21.13;11.10;;;5.50;99.90;;;;;;5064413;28;20270;-69
2023/12/11 08:07:59;;;;;;;19.07;10.93;;;5.50;99.90;;;;;;5052326;28;20208;-69
2023/12/11 08:10:29;;;;;;;24.23;11.70;;;5.50;99.90;;;;;;5055731;28;20511;-69
2023/12/11 08:12:56;;;;;;;29.17;12.93;;;5.50;99.90;;;;;;5055687;28;20262;-69
2023/12/11 08:15:23;;;;;;;29.17;12.97;;;5.50;99.90;;;;;;5073676;28;20256;-69
2023/12/11 08:17:50;;;;;;;31.97;14.83;;;5.40;99.90;;;;;;5054553;28;20203;-69
2023/12/11 08:20:20;;;;;;;28.07;13.90;;;5.40;99.90;;;;;;5068039;28;20534;-69
2023/12/11 08:22:47;;;;;;;25.10;13.23;;;5.40;99.90;;;;;;5053188;28;20219;-69
2023/12/11 08:25:18;;;;;;;27.33;14.60;;;5.40;99.90;;;;;;5056214;28;20252;-71
2023/12/11 08:27:47;;;;;;;29.20;13.40;;;5.30;99.90;;;;;;5055826;28;20230;-69
2023/12/11 08:30:14;;;;;;;30.47;13.07;;;5.30;99.90;;;;;;5056259;28;20292;-69
2023/12/11 08:32:41;;;;;;;30.93;13.87;;;5.30;99.90;;;;;;5052454;28;20214;-69
2023/12/11 08:35:09;;;;;;;32.33;14.03;;;5.30;99.90;;;;;;5073711;28;20194;-69
2023/12/11 08:37:37;;;;;;;40.70;15.80;;;5.30;99.90;;;;;;5072454;28;20199;-69
2023/12/11 08:40:05;;;;;;;24.87;12.50;;;5.40;99.90;;;;;;5056288;28;20301;-69
2023/12/11 08:42:33;;;;;;;33.00;13.60;;;5.40;99.90;;;;;;5072646;28;20203;-69
2023/12/11 08:45:02;;;;;;;25.53;12.20;;;5.30;99.90;;;;;;5074127;28;20229;-69
2023/12/11 08:47:30;;;;;;;24.90;11.80;;;5.30;99.90;;;;;;5072443;28;20214;-68
2023/12/11 08:49:57;;;;;;;29.33;12.27;;;5.30;99.90;;;;;;5073538;28;20222;-68
2023/12/11 08:52:24;;;;;;;23.70;12.33;;;5.40;99.90;;;;;;5053999;28;20236;-69
2023/12/11 08:54:51;;;;;;;22.70;12.40;;;5.40;99.90;;;;;;5073626;28;20210;-68
2023/12/11 08:57:21;;;;;;;22.13;12.70;;;5.40;99.90;;;;;;5072066;28;20704;-69
2023/12/11 08:59:48;;;;;;;24.67;13.10;;;5.40;99.90;;;;;;5073674;28;20190;-68
2023/12/11 09:02:18;;;;;;;27.47;12.77;;;5.40;99.90;;;;;;5072326;28;20269;-69
2023/12/11 09:04:45;;;;;;;28.33;13.40;;;5.40;99.90;;;;;;5070643;28;20581;-68
2023/12/11 09:07:12;;;;;;;27.53;13.20;;;5.50;99.90;;;;;;5053902;28;20194;-70
2023/12/11 09:09:40;;;;;;;24.83;12.53;;;5.50;99.90;;;;;;5073817;28;20210;-69
2023/12/11 09:12:07;;;;;;;24.03;11.90;;;5.50;99.90;;;;;;5073087;28;20195;-69
2023/12/11 09:14:35;;;;;;;21.33;11.17;;;5.50;99.90;;;;;;5072965;28;20252;-68
2023/12/11 09:17:02;;;;;;;23.83;12.97;;;5.50;99.90;;;;;;5071564;28;20391;-69
2023/12/11 09:19:31;;;;;;;24.50;14.07;;;5.60;99.90;;;;;;5073866;28;20530;-69
2023/12/11 09:21:58;;;;;;;25.77;13.47;;;5.60;99.90;;;;;;5072606;28;20190;-69
2023/12/11 09:24:25;;;;;;;16.40;10.07;;;5.60;99.90;;;;;;5054261;28;20215;-69
2023/12/11 09:26:52;;;;;;;23.37;12.27;;;5.60;99.90;;;;;;5052969;28;20200;-69
2023/12/11 09:29:19;;;;;;;18.73;11.20;;;5.60;99.90;;;;;;5072641;28;20199;-69
2023/12/11 09:31:46;;;;;;;23.30;11.63;;;5.70;99.90;;;;;;5072099;28;20199;-69
2023/12/11 09:34:14;;;;;;;27.20;14.37;;;5.70;99.90;;;;;;5072268;28;20203;-69
2023/12/11 09:36:42;;;;;;;28.90;14.87;;;5.70;99.90;;;;;;5053973;28;20292;-69
2023/12/11 09:39:10;;;;;;;29.43;14.60;;;5.70;99.90;;;;;;5053961;28;20773;-69
2023/12/11 09:41:37;;;;;;;33.10;17.27;;;5.70;99.90;;;;;;5072221;28;20532;-68
2023/12/11 09:44:05;;;;;;;30.77;16.83;;;5.70;99.90;;;;;;5051727;28;20286;-68
2023/12/11 09:46:41;;;;;;;23.10;12.87;;;5.70;99.90;;;;;;5051772;28;20203;-69
2023/12/11 09:49:09;;;;;;;29.53;13.47;;;5.70;99.90;;;;;;5069724;28;20264;-69
2023/12/11 09:51:36;;;;;;;24.40;13.33;;;5.70;99.90;;;;;;5071550;28;20200;-68
2023/12/11 09:54:05;;;;;;;24.13;12.27;;;5.70;99.90;;;;;;5053618;28;20203;-68
2023/12/11 09:56:33;;;;;;;26.80;12.60;;;5.70;99.90;;;;;;5071890;28;20188;-68
2023/12/11 09:59:00;;;;;;;20.27;10.57;;;5.70;99.90;;;;;;5053912;28;20199;-67
2023/12/11 10:01:27;;;;;;;20.57;10.80;;;5.70;99.90;;;;;;5071818;28;20209;-69
2023/12/11 10:03:54;;;;;;;23.47;11.40;;;5.70;99.90;;;;;;5053153;28;20322;-68
2023/12/11 10:06:21;;;;;;;21.80;10.30;;;5.70;99.90;;;;;;5071585;28;20199;-69
2023/12/11 10:08:52;;;;;;;20.07;10.80;;;5.70;99.90;;;;;;5053898;28;20242;-69
2023/12/11 10:11:22;;;;;;;20.13;11.23;;;5.70;99.90;;;;;;5053639;28;20299;-68
2023/12/11 10:13:50;;;;;;;23.07;11.93;;;5.70;99.90;;;;;;5068699;28;20196;-69
2023/12/11 10:16:31;;;;;;;18.40;11.33;;;5.70;99.90;;;;;;5071742;28;20306;-69
2023/12/11 10:18:59;;;;;;;15.63;9.83;;;5.80;99.90;;;;;;5071632;28;20193;-69
2023/12/11 10:21:26;;;;;;;19.73;9.77;;;5.80;99.90;;;;;;5071362;28;20565;-69
2023/12/11 10:24:04;;;;;;;12.30;7.20;;;5.80;99.90;;;;;;5052855;28;20211;-69
2023/12/11 10:26:33;;;;;;;25.30;11.13;;;5.70;99.90;;;;;;5068784;28;20286;-69
2023/12/11 10:29:19;;;;;;;19.80;10.93;;;5.80;99.90;;;;;;5071509;28;20671;-69
2023/12/11 10:31:48;;;;;;;19.30;10.57;;;5.80;99.90;;;;;;5071066;28;20276;-70
2023/12/11 10:34:15;;;;;;;22.97;11.97;;;5.80;99.90;;;;;;5052600;28;20193;-69
2023/12/11 10:36:50;;;;;;;20.10;10.60;;;5.90;99.90;;;;;;5070945;28;20200;-69
2023/12/11 10:39:18;;;;;;;24.30;12.93;;;5.90;99.90;;;;;;5069307;28;20189;-68
2023/12/11 10:41:47;;;;;;;23.93;12.23;;;5.90;99.90;;;;;;5070889;28;20616;-69
2023/12/11 10:44:25;;;;;;;21.47;10.93;;;5.90;99.90;;;;;;5052933;28;20270;-68
2023/12/11 10:46:54;;;;;;;17.63;9.37;;;6.00;99.90;;;;;;5070907;28;20203;-69
2023/12/11 10:49:22;;;;;;;14.23;8.00;;;6.00;99.90;;;;;;5053085;28;20243;-68
2023/12/11 10:51:50;;;;;;;17.03;9.03;;;6.00;99.90;;;;;;5070377;28;20247;-69
2023/12/11 10:54:17;;;;;;;12.80;7.70;;;6.00;99.90;;;;;;5070278;28;20243;-68
2023/12/11 10:56:48;;;;;;;12.30;7.40;;;6.00;99.90;;;;;;5070410;28;20204;-69
2023/12/11 10:59:16;;;;;;;14.10;7.53;;;6.00;99.90;;;;;;5052748;28;20599;-68
2023/12/11 11:01:46;;;;;;;16.23;8.20;;;6.10;99.90;;;;;;5052292;28;20237;-70
2023/12/11 11:04:14;;;;;;;12.43;7.07;;;6.10;99.90;;;;;;5070112;28;20290;-69
2023/12/11 11:06:48;;;;;;;11.53;6.53;;;6.00;99.90;;;;;;5070146;28;20267;-69
2023/12/11 11:09:24;;;;;;;10.83;6.57;;;6.10;99.90;;;;;;5052049;28;20215;-68
2023/12/11 11:12:01;;;;;;;20.07;10.73;;;6.10;99.90;;;;;;5069444;28;20219;-68
2023/12/11 11:14:47;;;;;;;19.50;9.83;;;6.20;99.90;;;;;;5052996;28;20197;-69
2023/12/11 11:17:16;;;;;;;19.90;9.50;;;6.20;99.90;;;;;;5063397;28;20206;-68
2023/12/11 11:20:14;;;;;;;13.60;8.10;;;6.30;99.90;;;;;;5070776;28;20199;-69
2023/12/11 11:22:41;;;;;;;15.37;8.23;;;6.20;99.90;;;;;;5069610;28;20310;-70
2023/12/11 11:25:29;;;;;;;15.43;8.40;;;6.30;99.90;;;;;;5070560;28;20229;-69
2023/12/11 11:27:58;;;;;;;14.80;7.43;;;6.20;99.90;;;;;;5070461;28;20203;-68
2023/12/11 11:30:53;;;;;;;19.50;8.40;;;6.20;99.90;;;;;;5051859;28;20540;-68
2023/12/11 11:33:21;;;;;;;16.37;8.60;;;6.20;99.90;;;;;;5070003;28;20205;-69
2023/12/11 11:35:53;;;;;;;16.33;7.80;;;6.20;99.90;;;;;;5069334;28;20217;-69
2023/12/11 11:38:22;;;;;;;14.97;8.30;;;6.20;99.90;;;;;;5043569;28;20345;-69
2023/12/11 11:40:51;;;;;;;17.43;8.80;;;6.20;99.90;;;;;;5048375;28;20205;-69
2023/12/11 11:43:19;;;;;;;15.77;9.07;;;6.20;99.90;;;;;;5045045;28;20201;-68
2023/12/11 11:45:55;;;;;;;16.50;7.87;;;6.20;99.90;;;;;;5067165;28;20185;-69
2023/12/11 11:48:22;;;;;;;15.50;8.27;;;6.20;99.90;;;;;;5052423;28;20201;-69
2023/12/11 11:50:54;;;;;;;15.47;8.40;;;6.30;99.90;;;;;;5069171;28;20197;-69
2023/12/11 11:53:22;;;;;;;13.07;7.40;;;6.20;99.90;;;;;;5069886;28;20232;-69
2023/12/11 11:55:50;;;;;;;13.20;7.63;;;6.30;99.90;;;;;;5051330;28;20667;-69
2023/12/11 11:58:18;;;;;;;14.73;7.67;;;6.30;99.90;;;;;;5070419;28;20204;-69
2023/12/11 12:00:46;;;;;;;17.87;9.23;;;6.30;99.90;;;;;;5069294;28;20660;-69
2023/12/11 12:03:13;;;;;;;12.97;7.83;;;6.30;99.90;;;;;;5069914;28;20342;-69
2023/12/11 12:05:55;;;;;;;11.60;6.63;;;6.30;99.90;;;;;;5065634;28;20250;-69
2023/12/11 12:08:22;;;;;;;12.47;6.80;;;6.30;99.90;;;;;;5069497;28;20670;-69
2023/12/11 12:10:50;;;;;;;12.87;7.40;;;6.30;99.90;;;;;;5051638;28;20664;-68
2023/12/11 12:13:19;;;;;;;15.73;8.73;;;6.30;99.90;;;;;;5069628;28;20201;-68
2023/12/11 12:15:46;;;;;;;22.40;11.60;;;6.40;99.90;;;;;;5067813;28;20628;-68
2023/12/11 12:18:13;;;;;;;18.87;10.83;;;6.40;99.90;;;;;;5043178;28;20273;-69
2023/12/11 12:20:40;;;;;;;26.77;13.60;;;6.40;99.90;;;;;;5069720;28;20196;-69
2023/12/11 12:23:07;;;;;;;31.17;15.00;;;6.50;99.90;;;;;;5069459;28;20275;-69
2023/12/11 12:25:35;;;;;;;31.57;15.17;;;6.50;99.90;;;;;;5069431;28;20240;-69
2023/12/11 12:28:07;;;;;;;28.63;14.90;;;6.50;99.90;;;;;;5067080;28;20220;-68
2023/12/11 12:30:36;;;;;;;28.93;14.80;;;6.50;99.90;;;;;;5069818;28;20702;-68
2023/12/11 12:33:08;;;;;;;24.63;13.07;;;6.50;99.90;;;;;;5049190;28;20288;-68
2023/12/11 12:35:37;;;;;;;22.17;11.67;;;6.50;99.90;;;;;;5069288;28;20272;-68
2023/12/11 12:38:05;;;;;;;26.10;12.93;;;6.50;99.90;;;;;;5069418;28;20272;-68
2023/12/11 12:40:34;;;;;;;27.23;13.07;;;6.60;99.90;;;;;;5069729;28;20276;-68
2023/12/11 12:43:01;;;;;;;29.73;14.83;;;6.50;99.90;;;;;;5069407;28;20213;-68
2023/12/11 12:45:32;;;;;;;24.73;12.20;;;6.50;99.90;;;;;;5069111;28;20213;-69
2023/12/11 12:48:01;;;;;;;20.53;10.93;;;6.50;99.90;;;;;;5051600;28;20636;-68